createdAt,value
2019-05-06T00:01:55.409Z,4.83
2019-05-06T00:04:26.806Z,4.90
2019-05-06T00:06:56.660Z,5.30
2019-05-06T00:09:26.473Z,5.00
2019-05-06T00:11:57.800Z,5.53
2019-05-06T00:14:27.521Z,5.20
2019-05-06T00:16:58.805Z,5.17
2019-05-06T00:19:31.540Z,5.20
2019-05-06T00:22:01.386Z,5.22
2019-05-06T00:24:47.525Z,5.60
2019-05-06T00:27:27.041Z,5.53
2019-05-06T00:29:56.846Z,5.50
2019-05-06T00:32:26.798Z,5.72
2019-05-06T00:37:25.535Z,7.06
2019-05-06T00:39:57.015Z,7.47
2019-05-06T00:42:34.691Z,6.90
2019-05-06T00:45:06.674Z,7.40
2019-05-06T00:47:36.525Z,6.62
2019-05-06T00:50:07.775Z,7.12
2019-05-06T00:52:38.068Z,7.60
2019-05-06T00:55:07.957Z,7.72
2019-05-06T00:57:39.341Z,7.87
2019-05-06T01:00:09.179Z,7.25
2019-05-06T01:02:39.152Z,7.12
2019-05-06T01:07:39.361Z,7.58
2019-05-06T01:10:10.838Z,7.53
2019-05-06T01:12:43.486Z,8.05
2019-05-06T01:15:26.134Z,7.87
2019-05-06T01:17:55.977Z,8.38
2019-05-06T01:20:26.777Z,8.30
2019-05-06T01:22:57.547Z,8.33
2019-05-06T01:25:27.398Z,8.00
2019-05-06T01:30:28.787Z,7.55
2019-05-06T01:32:58.597Z,8.18
2019-05-06T01:35:28.404Z,8.20
2019-05-06T01:38:15.942Z,8.03
2019-05-06T01:40:47.334Z,7.42
2019-05-06T01:43:20.291Z,8.13
2019-05-06T01:45:49.939Z,8.10
2019-05-06T01:50:50.806Z,7.22
2019-05-06T01:53:20.522Z,7.67
2019-05-06T01:55:51.644Z,7.85
2019-05-06T01:58:21.554Z,8.00
2019-05-06T02:00:51.454Z,8.13
2019-05-06T02:03:24.179Z,8.68
2019-05-06T02:05:53.935Z,9.85
2019-05-06T02:08:24.785Z,9.68
2019-05-06T02:10:54.689Z,9.40
2019-05-06T02:13:25.538Z,9.40
2019-05-06T02:15:59.786Z,9.00
2019-05-06T02:18:29.650Z,8.53
2019-05-06T02:21:17.152Z,9.63
2019-05-06T02:23:48.538Z,9.25
2019-05-06T02:26:18.230Z,8.65
2019-05-06T02:31:37.973Z,7.78
2019-05-06T02:34:25.561Z,8.30
2019-05-06T02:36:57.105Z,8.10
2019-05-06T02:39:26.968Z,7.95
2019-05-06T02:41:56.694Z,9.03
2019-05-06T02:44:26.471Z,8.93
2019-05-06T02:46:59.447Z,7.67
2019-05-06T02:49:33.052Z,7.37
2019-05-06T02:52:03.226Z,7.37
2019-05-06T02:54:35.866Z,7.97
2019-05-06T02:57:05.617Z,7.67
2019-05-06T02:59:36.790Z,8.60
2019-05-06T03:02:08.148Z,7.25
2019-05-06T03:04:38.107Z,9.08
2019-05-06T03:07:08.837Z,8.48
2019-05-06T03:09:38.599Z,8.28
2019-05-06T03:12:09.908Z,8.53
2019-05-06T03:14:39.732Z,8.35
2019-05-06T03:17:09.573Z,10.75
2019-05-06T03:19:45.689Z,9.13
2019-05-06T03:22:28.567Z,8.40
2019-05-06T03:25:06.382Z,8.50
2019-05-06T03:27:33.105Z,8.50
2019-05-06T03:30:06.988Z,8.80
2019-05-06T03:32:41.824Z,10.28
2019-05-06T03:35:27.319Z,10.18
2019-05-06T03:37:39.726Z,9.60
2019-05-06T03:40:09.524Z,9.08
2019-05-06T03:42:39.368Z,8.70
2019-05-06T03:45:14.459Z,10.45
2019-05-06T03:47:45.840Z,8.90
2019-05-06T03:50:15.754Z,10.05
2019-05-06T03:52:45.668Z,8.53
2019-05-06T03:55:15.406Z,9.18
2019-05-06T03:57:46.186Z,9.80
2019-05-06T04:00:17.482Z,9.43
2019-05-06T04:02:48.772Z,9.75
2019-05-06T04:05:19.691Z,9.10
2019-05-06T04:07:53.074Z,9.95
2019-05-06T04:10:23.048Z,9.25
2019-05-06T04:12:56.251Z,9.43
2019-05-06T04:15:28.692Z,10.32
2019-05-06T04:18:08.120Z,9.58
2019-05-06T04:20:43.588Z,10.00
2019-05-06T04:23:23.908Z,9.43
2019-05-06T04:25:59.777Z,10.03
2019-05-06T04:28:36.858Z,12.18
2019-05-06T04:31:06.883Z,12.03
2019-05-06T04:33:39.431Z,10.53
2019-05-06T04:36:09.334Z,10.63
2019-05-06T04:38:39.687Z,9.45
2019-05-06T04:41:09.396Z,10.20
2019-05-06T04:43:39.287Z,9.25
2019-05-06T04:46:09.276Z,9.40
2019-05-06T04:48:39.259Z,8.68
2019-05-06T04:51:13.412Z,9.40
2019-05-06T04:53:44.044Z,8.13
2019-05-06T04:56:14.471Z,8.48
2019-05-06T04:58:47.611Z,8.05
2019-05-06T05:01:23.180Z,9.80
2019-05-06T05:03:53.891Z,9.30
2019-05-06T05:06:25.629Z,8.78
2019-05-06T05:08:57.097Z,8.45
2019-05-06T05:11:36.635Z,8.43
2019-05-06T05:14:08.094Z,7.95
2019-05-06T05:16:39.514Z,7.85
2019-05-06T05:19:24.920Z,5.75
2019-05-06T05:22:06.345Z,8.15
2019-05-06T05:24:37.344Z,9.13
2019-05-06T05:27:09.105Z,8.08
2019-05-06T05:29:42.359Z,6.70
2019-05-06T05:32:13.550Z,7.20
2019-05-06T05:34:43.628Z,8.25
2019-05-06T05:37:13.545Z,8.18
2019-05-06T05:39:47.889Z,7.10
2019-05-06T05:42:26.910Z,7.47
2019-05-06T05:46:03.120Z,8.23
2019-05-06T05:47:37.016Z,6.60
2019-05-06T05:50:27.879Z,7.47
2019-05-06T05:53:22.930Z,8.08
2019-05-06T05:55:55.801Z,8.43
2019-05-06T05:58:30.041Z,8.43
2019-05-06T06:01:04.363Z,8.35
2019-05-06T06:03:34.832Z,8.03
2019-05-06T06:06:04.866Z,7.37
2019-05-06T06:11:23.263Z,7.97
2019-05-06T06:13:56.531Z,7.97
2019-05-06T06:16:42.260Z,7.40
2019-05-06T06:19:17.992Z,8.95
2019-05-06T06:21:49.552Z,8.20
2019-05-06T06:24:28.790Z,7.22
2019-05-06T06:26:59.406Z,8.23
2019-05-06T06:29:36.399Z,9.10
2019-05-06T06:32:13.804Z,8.50
2019-05-06T06:34:52.095Z,8.18
2019-05-06T06:37:29.705Z,8.30
2019-05-06T06:40:02.491Z,9.23
2019-05-06T06:42:38.133Z,9.53
2019-05-06T06:45:09.300Z,9.60
2019-05-06T06:47:43.041Z,8.45
2019-05-06T06:50:16.050Z,9.98
2019-05-06T06:52:48.543Z,10.05
2019-05-06T06:55:19.406Z,8.90
2019-05-06T06:57:57.267Z,8.75
2019-05-06T07:00:47.048Z,8.73
2019-05-06T07:03:16.478Z,9.48
2019-05-06T07:05:48.439Z,8.63
2019-05-06T07:08:33.864Z,8.85
2019-05-06T07:10:58.493Z,9.23
2019-05-06T07:13:32.712Z,8.53
2019-05-06T07:16:07.630Z,8.08
2019-05-06T07:18:36.824Z,8.33
2019-05-06T07:21:09.401Z,9.18
2019-05-06T07:23:42.339Z,8.33
2019-05-06T07:26:13.855Z,8.85
2019-05-06T07:28:45.192Z,9.23
2019-05-06T07:31:21.336Z,8.95
2019-05-06T07:33:52.077Z,9.63
2019-05-06T07:36:23.484Z,8.70
2019-05-06T07:38:54.999Z,6.10
2019-05-06T07:44:25.121Z,9.38
2019-05-06T07:47:03.766Z,9.15
2019-05-06T07:49:37.965Z,8.53
2019-05-06T07:52:07.878Z,9.83
2019-05-06T07:57:09.973Z,10.13
2019-05-06T07:59:40.246Z,9.28
2019-05-06T08:02:09.956Z,9.13
2019-05-06T08:04:41.581Z,9.20
2019-05-06T08:07:13.918Z,9.30
2019-05-06T08:12:17.726Z,9.78
2019-05-06T08:17:23.911Z,9.03
2019-05-06T08:19:53.892Z,9.58
2019-05-06T08:22:33.402Z,8.90
2019-05-06T08:25:07.163Z,8.60
2019-05-06T08:27:37.017Z,7.62
2019-05-06T08:32:38.977Z,7.70
2019-05-06T08:35:10.705Z,7.22
2019-05-06T08:37:43.339Z,7.70
2019-05-06T08:40:15.531Z,8.10
2019-05-06T08:42:45.577Z,7.55
2019-05-06T08:47:45.791Z,7.45
2019-05-06T08:50:27.676Z,6.95
2019-05-06T08:53:05.041Z,6.65
2019-05-06T08:55:37.462Z,6.90
2019-05-06T08:58:10.305Z,6.80
2019-05-06T09:00:42.886Z,7.00
2019-05-06T09:03:16.735Z,6.33
2019-05-06T09:05:56.353Z,5.80
2019-05-06T09:08:26.261Z,7.42
2019-05-06T09:13:26.163Z,5.87
2019-05-06T09:16:06.319Z,5.53
2019-05-06T09:18:37.821Z,7.28
2019-05-06T09:21:12.280Z,7.00
2019-05-06T09:23:42.587Z,7.45
2019-05-06T09:26:14.167Z,6.05
2019-05-06T09:28:48.983Z,7.08
2019-05-06T09:31:25.300Z,6.05
2019-05-06T09:34:13.033Z,4.25
2019-05-06T09:36:51.681Z,5.67
2019-05-06T09:39:15.795Z,6.00
2019-05-06T09:41:50.314Z,6.25
2019-05-06T09:44:23.277Z,6.30
2019-05-06T09:46:53.264Z,6.75
2019-05-06T09:49:32.902Z,5.67
2019-05-06T09:52:03.445Z,5.95
2019-05-06T09:54:57.327Z,6.40
2019-05-06T09:57:34.503Z,6.20
2019-05-06T10:00:26.176Z,5.87
2019-05-06T10:02:57.598Z,5.20
2019-05-06T10:05:27.812Z,4.80
2019-05-06T10:07:59.568Z,5.55
2019-05-06T10:10:29.425Z,5.55
2019-05-06T10:12:59.615Z,5.50
2019-05-06T10:15:32.707Z,5.95
2019-05-06T10:18:12.772Z,5.90
2019-05-06T10:20:43.998Z,5.60
2019-05-06T10:23:24.894Z,6.28
2019-05-06T10:25:56.890Z,5.08
2019-05-06T10:28:36.066Z,4.75
2019-05-06T10:31:12.714Z,4.67
2019-05-06T10:34:03.582Z,5.08
2019-05-06T10:36:38.069Z,4.65
2019-05-06T10:39:12.664Z,4.53
2019-05-06T10:41:46.421Z,4.37
2019-05-06T10:44:28.088Z,4.97
2019-05-06T10:47:02.831Z,3.77
2019-05-06T10:49:33.806Z,4.22
2019-05-06T10:52:12.748Z,5.00
2019-05-06T10:54:54.032Z,4.87
2019-05-06T10:57:32.642Z,5.05
2019-05-06T11:00:04.488Z,5.08
2019-05-06T11:02:52.366Z,5.12
2019-05-06T11:05:24.841Z,4.30
2019-05-06T11:07:57.776Z,4.58
2019-05-06T11:10:32.328Z,4.60
2019-05-06T11:12:59.171Z,4.65
2019-05-06T11:15:32.894Z,4.40
2019-05-06T11:18:04.200Z,4.42
2019-05-06T11:20:34.596Z,4.40
2019-05-06T11:23:04.472Z,4.72
2019-05-06T11:25:37.797Z,4.20
2019-05-06T11:28:12.974Z,4.92
2019-05-06T11:30:46.057Z,4.87
2019-05-06T11:33:42.484Z,4.89
2019-05-06T11:36:15.195Z,5.35
2019-05-06T11:38:48.513Z,5.55
2019-05-06T11:41:23.375Z,4.83
2019-05-06T11:43:57.793Z,4.80
2019-05-06T11:46:27.689Z,5.05
2019-05-06T11:48:57.584Z,5.30
2019-05-06T11:51:29.020Z,5.33
2019-05-06T11:54:02.694Z,4.55
2019-05-06T11:56:47.530Z,5.08
2019-05-06T11:59:09.274Z,4.78
2019-05-06T12:01:54.090Z,5.90
2019-05-06T12:04:28.538Z,5.42
2019-05-06T12:07:10.506Z,5.28
2019-05-06T12:09:35.957Z,5.60
2019-05-06T12:12:08.812Z,5.28
2019-05-06T12:14:38.578Z,5.08
2019-05-06T12:19:37.375Z,4.80
2019-05-06T12:24:40.201Z,4.42
2019-05-06T12:29:42.679Z,5.27
2019-05-06T12:32:25.408Z,5.50
2019-05-06T12:35:16.284Z,5.92
2019-05-06T12:38:06.846Z,5.53
2019-05-06T12:40:38.661Z,5.62
2019-05-06T12:43:24.529Z,5.87
2019-05-06T12:45:56.546Z,5.00
2019-05-06T12:48:28.033Z,5.75
2019-05-06T12:50:59.385Z,5.10
2019-05-06T12:53:32.642Z,5.58
2019-05-06T12:56:03.488Z,5.30
2019-05-06T12:58:33.362Z,5.50
2019-05-06T13:03:34.970Z,5.20
2019-05-06T13:06:07.175Z,5.00
2019-05-06T13:08:54.099Z,5.40
2019-05-06T13:11:13.211Z,5.58
2019-05-06T13:13:56.667Z,5.20
2019-05-06T13:16:19.319Z,5.95
2019-05-06T13:18:52.525Z,6.03
2019-05-06T13:21:23.527Z,5.60
2019-05-06T13:23:54.940Z,5.45
2019-05-06T13:26:24.655Z,5.62
2019-05-06T13:28:56.114Z,5.20
2019-05-06T13:31:29.002Z,5.16
2019-05-06T13:36:33.132Z,4.92
2019-05-06T13:39:14.037Z,5.35
2019-05-06T13:41:38.431Z,5.50
2019-05-06T13:46:40.404Z,5.08
2019-05-06T13:52:04.517Z,5.30
2019-05-06T13:54:35.600Z,4.75
2019-05-06T13:57:12.518Z,5.28
2019-05-06T13:59:44.033Z,5.17
2019-05-06T14:02:16.854Z,5.30
2019-05-06T14:04:52.740Z,4.62
2019-05-06T14:07:24.193Z,5.10
2019-05-06T14:09:56.935Z,5.03
2019-05-06T14:12:28.196Z,4.60
2019-05-06T14:14:58.773Z,5.00
2019-05-06T14:17:32.838Z,5.25
2019-05-06T14:20:04.413Z,5.05
2019-05-06T14:22:34.261Z,4.80
2019-05-06T14:25:18.401Z,4.90
2019-05-06T14:27:52.577Z,5.15
2019-05-06T14:30:34.406Z,4.95
2019-05-06T14:33:04.196Z,5.20
2019-05-06T14:35:36.848Z,5.33
2019-05-06T14:38:06.702Z,5.83
2019-05-06T14:40:54.018Z,5.60
2019-05-06T14:43:25.373Z,6.03
2019-05-06T14:45:55.269Z,5.70
2019-05-06T14:48:26.719Z,6.65
2019-05-06T14:50:58.625Z,5.83
2019-05-06T14:53:33.122Z,6.03
2019-05-06T14:56:04.999Z,5.92
2019-05-06T14:58:34.905Z,5.97
2019-05-06T15:01:04.817Z,5.80
2019-05-06T15:03:37.191Z,5.92
2019-05-06T15:06:08.814Z,5.95
2019-05-06T15:08:39.784Z,5.72
2019-05-06T15:11:12.246Z,5.80
2019-05-06T15:13:42.669Z,5.55
2019-05-06T15:16:13.189Z,5.80
2019-05-06T15:18:43.077Z,6.20
2019-05-06T15:21:33.783Z,5.58
2019-05-06T15:23:46.716Z,5.85
2019-05-06T15:26:18.450Z,5.67
2019-05-06T15:28:49.280Z,5.87
2019-05-06T15:31:22.891Z,5.83
2019-05-06T15:33:53.755Z,5.87
2019-05-06T15:36:41.273Z,5.62
2019-05-06T15:39:13.226Z,5.75
2019-05-06T15:41:44.973Z,5.90
2019-05-06T15:44:16.640Z,6.05
2019-05-06T15:46:49.102Z,5.85
2019-05-06T15:49:18.811Z,6.08
2019-05-06T15:51:52.215Z,6.03
2019-05-06T15:54:22.517Z,6.03
2019-05-06T15:56:53.221Z,5.30
2019-05-06T15:59:27.334Z,5.85
2019-05-06T16:01:58.647Z,5.83
2019-05-06T16:04:28.397Z,5.70
2019-05-06T16:06:58.105Z,6.40
2019-05-06T16:09:27.847Z,6.10
2019-05-06T16:11:57.810Z,5.90
2019-05-06T16:14:28.958Z,5.80
2019-05-06T16:17:01.343Z,5.97
2019-05-06T16:19:33.274Z,6.22
2019-05-06T16:22:04.256Z,6.53
2019-05-06T16:24:37.313Z,6.22
2019-05-06T16:27:07.143Z,5.90
2019-05-06T16:29:37.115Z,6.03
2019-05-06T16:32:10.000Z,5.97
2019-05-06T16:34:45.669Z,6.75
2019-05-06T16:37:15.440Z,6.00
2019-05-06T16:39:47.365Z,6.83
2019-05-06T16:42:16.987Z,5.97
2019-05-06T16:47:18.908Z,5.55
2019-05-06T16:49:48.602Z,6.35
2019-05-06T16:52:18.360Z,6.45
2019-05-06T16:54:52.000Z,6.20
2019-05-06T16:57:24.004Z,6.58
2019-05-06T16:59:56.919Z,6.45
2019-05-06T17:02:28.252Z,6.80
2019-05-06T17:05:05.686Z,5.80
2019-05-06T17:07:45.019Z,5.95
2019-05-06T17:10:08.930Z,6.15
2019-05-06T17:12:40.370Z,6.22
2019-05-06T17:15:10.485Z,6.30
2019-05-06T17:17:46.148Z,6.83
2019-05-06T17:20:12.311Z,6.33
2019-05-06T17:22:42.416Z,7.15
2019-05-06T17:25:13.812Z,7.20
2019-05-06T17:27:44.402Z,6.75
2019-05-06T17:30:22.661Z,6.95
2019-05-06T17:32:55.118Z,7.08
2019-05-06T17:35:27.127Z,6.58
2019-05-06T17:38:04.116Z,6.85
2019-05-06T17:40:33.893Z,6.50
2019-05-06T17:43:03.701Z,6.58
2019-05-06T17:48:27.380Z,6.62
2019-05-06T17:51:13.460Z,6.35
2019-05-06T17:53:45.871Z,6.17
2019-05-06T17:56:15.677Z,6.60
2019-05-06T17:58:45.527Z,6.30
2019-05-06T18:01:16.954Z,6.22
2019-05-06T18:03:46.728Z,6.12
2019-05-06T18:11:17.037Z,5.83
2019-05-06T18:13:51.972Z,5.60
2019-05-06T18:16:23.619Z,6.28
2019-05-06T18:18:56.266Z,7.00
2019-05-06T18:21:26.207Z,6.40
2019-05-06T18:26:24.960Z,6.03
2019-05-06T18:31:27.841Z,6.95
2019-05-06T18:33:59.096Z,6.37
2019-05-06T18:36:28.925Z,6.35
2019-05-06T18:39:00.458Z,6.72
2019-05-06T18:41:32.938Z,6.53
2019-05-06T18:44:04.438Z,6.47
2019-05-06T18:46:42.000Z,6.83
2019-05-06T18:49:13.078Z,6.85
2019-05-06T18:51:42.996Z,7.25
2019-05-06T18:56:43.300Z,6.92
2019-05-06T19:01:43.633Z,7.07
2019-05-06T19:04:22.601Z,7.15
2019-05-06T19:07:09.206Z,7.50
2019-05-06T19:09:35.608Z,7.21
2019-05-06T19:12:08.057Z,8.05
2019-05-06T19:14:39.726Z,7.63
2019-05-06T19:17:14.259Z,6.92
2019-05-06T19:19:42.755Z,7.78
2019-05-06T19:22:14.156Z,7.28
2019-05-06T19:24:44.736Z,7.65
2019-05-06T19:27:14.641Z,7.12
2019-05-06T19:29:45.448Z,8.08
2019-05-06T19:32:15.421Z,7.22
2019-05-06T19:37:13.829Z,7.20
2019-05-06T19:39:45.479Z,7.58
2019-05-06T19:42:17.915Z,7.47
2019-05-06T19:44:48.338Z,7.60
2019-05-06T19:47:18.095Z,8.38
2019-05-06T19:49:49.556Z,7.75
2019-05-06T19:52:24.868Z,7.87
2019-05-06T19:54:54.001Z,8.30
2019-05-06T19:59:52.672Z,8.58
2019-05-06T20:02:25.589Z,8.25
2019-05-06T20:04:56.796Z,8.90
2019-05-06T20:07:28.230Z,9.40
2019-05-06T20:09:59.445Z,8.43
2019-05-06T20:12:32.645Z,8.68
2019-05-06T20:15:21.276Z,8.48
2019-05-06T20:17:52.105Z,9.23
2019-05-06T20:20:22.968Z,8.78
2019-05-06T20:22:58.288Z,9.45
2019-05-06T20:25:29.425Z,8.68
2019-05-06T20:30:34.848Z,9.00
2019-05-06T20:33:04.690Z,8.15
2019-05-06T20:35:34.497Z,8.65
2019-05-06T20:38:04.231Z,8.45
2019-05-06T20:40:38.112Z,8.35
2019-05-06T20:43:19.211Z,9.10
2019-05-06T20:45:43.794Z,8.70
2019-05-06T20:48:13.497Z,9.05
2019-05-06T20:50:43.206Z,8.43
2019-05-06T20:53:13.103Z,9.43
2019-05-06T20:55:43.409Z,9.03
2019-05-06T20:58:13.316Z,9.18
2019-05-06T21:00:43.232Z,9.73
2019-05-06T21:05:43.750Z,9.45
2019-05-06T21:08:13.590Z,8.58
2019-05-06T21:10:43.654Z,8.75
2019-05-06T21:13:17.540Z,7.70
2019-05-06T21:18:12.652Z,8.05
2019-05-06T21:20:43.545Z,6.17
2019-05-06T21:23:13.471Z,6.22
2019-05-06T21:25:43.281Z,5.67
2019-05-06T21:30:42.910Z,4.97
2019-05-06T21:33:12.771Z,6.15
2019-05-06T21:35:43.292Z,5.53
2019-05-06T21:38:12.945Z,6.03
2019-05-06T21:40:43.375Z,6.00
2019-05-06T21:43:14.288Z,6.22
2019-05-06T21:45:43.925Z,6.03
2019-05-06T21:48:13.815Z,4.75
2019-05-06T21:53:14.700Z,5.30
2019-05-06T21:55:44.016Z,4.08
2019-05-06T21:58:13.642Z,4.00
2019-05-06T22:00:56.900Z,3.90
2019-05-06T22:03:26.659Z,4.42
2019-05-06T22:05:57.369Z,4.45
2019-05-06T22:08:26.916Z,4.47
2019-05-06T22:10:56.541Z,4.08
2019-05-06T22:13:26.252Z,4.30
2019-05-06T22:15:56.928Z,4.42
2019-05-06T22:18:26.616Z,4.17
2019-05-06T22:21:06.894Z,3.58
2019-05-06T22:23:49.951Z,3.95
2019-05-06T22:26:32.304Z,4.03
2019-05-06T22:29:02.054Z,3.90
2019-05-06T22:31:33.062Z,4.15
2019-05-06T22:34:03.259Z,4.37
2019-05-06T22:39:02.582Z,3.80
2019-05-06T22:41:33.980Z,3.95
2019-05-06T22:44:13.269Z,3.80
2019-05-06T22:46:34.988Z,3.80
2019-05-06T22:49:04.819Z,3.67
2019-05-06T22:51:34.560Z,4.78
2019-05-06T22:54:04.257Z,4.20
2019-05-06T22:56:33.856Z,4.00
2019-05-06T22:59:03.605Z,2.98
2019-05-06T23:01:40.696Z,3.30
2019-05-06T23:04:11.545Z,3.12
2019-05-06T23:06:41.321Z,3.45
2019-05-06T23:09:10.949Z,3.50
2019-05-06T23:11:42.433Z,3.30
2019-05-06T23:14:12.440Z,3.12
2019-05-06T23:16:43.131Z,3.37
2019-05-06T23:19:12.832Z,3.22
2019-05-06T23:21:43.124Z,3.20
2019-05-06T23:24:13.272Z,3.25
2019-05-06T23:26:44.119Z,3.60
2019-05-06T23:29:13.648Z,3.72
2019-05-06T23:31:43.459Z,3.25
2019-05-06T23:34:12.987Z,3.30
2019-05-06T23:37:02.801Z,3.25
2019-05-06T23:40:12.715Z,3.20
2019-05-06T23:43:19.457Z,3.52
2019-05-06T23:46:24.975Z,3.37
2019-05-06T23:49:32.719Z,3.35
2019-05-06T23:52:38.140Z,2.85
2019-05-06T23:55:44.211Z,3.15
2019-05-06T23:58:14.658Z,3.08
